Time;durP1;ratioP1;P1;durP2;ratioP2;P2;SDS_P1;SDS_P2;PMS_P1;PMS_P2;Temp;Humidity;BMP_temperature;BMP_pressure;BME280_temperature;BME280_humidity;BME280_pressure;Samples;Min_cycle;Max_cycle;Signal;HPM_P1;HPM_P2
2022/11/29 00:00:21;;;;;;;89.05;30.23;;;;;;;7.25;100.00;101331.16;1022936;28;20330;-80
2022/11/29 00:00:53;;;;;;;90.20;27.90;;;;;;;7.21;100.00;101333.34;1027601;28;20353;-79
2022/11/29 00:01:26;;;;;;;112.72;30.52;;;;;;;7.20;100.00;101331.69;1034738;28;20390;-80
2022/11/29 00:01:57;;;;;;;98.38;28.65;;;;;;;7.19;100.00;101330.06;1031369;28;20301;-80
2022/11/29 00:02:29;;;;;;;83.78;28.20;;;;;;;7.21;100.00;101321.91;1030841;28;20308;-80
2022/11/29 00:03:00;;;;;;;85.15;28.73;;;;;;;7.21;100.00;101321.91;1031689;28;20719;-80
2022/11/29 00:03:33;;;;;;;88.22;30.58;;;;;;;7.21;100.00;101324.56;1030654;28;20336;-80
2022/11/29 00:04:04;;;;;;;94.70;29.65;;;;;;;7.23;100.00;101319.91;1030973;28;20914;-80
2022/11/29 00:04:36;;;;;;;89.00;27.80;;;;;;;7.20;100.00;101315.78;1035143;28;20354;-81
2022/11/29 00:05:08;;;;;;;97.63;29.95;;;;;;;7.18;100.00;101317.00;1026478;28;20313;-81
2022/11/29 00:05:39;;;;;;;81.35;26.58;;;;;;;7.17;100.00;101318.00;1031124;28;20811;-80
2022/11/29 00:06:16;;;;;;;108.80;28.70;;;;;;;7.16;100.00;101326.94;1035024;28;20320;-81
2022/11/29 00:06:48;;;;;;;98.03;27.92;;;;;;;7.14;100.00;101316.53;1031876;28;20372;-80
2022/11/29 00:07:19;;;;;;;90.95;28.52;;;;;;;7.16;100.00;101324.28;1034671;28;20296;-80
2022/11/29 00:07:51;;;;;;;97.53;30.23;;;;;;;7.15;100.00;101325.31;1035688;28;20320;-81
2022/11/29 00:08:22;;;;;;;90.97;27.60;;;;;;;7.15;100.00;101318.19;1039428;28;20319;-80
2022/11/29 00:08:56;;;;;;;92.15;28.42;;;;;;;7.16;100.00;101324.28;1033667;28;20415;-80
2022/11/29 00:09:27;;;;;;;98.53;29.67;;;;;;;7.16;100.00;101326.94;1029311;28;20717;-80
2022/11/29 00:09:59;;;;;;;89.72;30.30;;;;;;;7.16;100.00;101325.13;1030904;28;20343;-81
2022/11/29 00:10:30;;;;;;;88.43;27.92;;;;;;;7.15;100.00;101327.94;1032015;28;20391;-81
2022/11/29 00:11:11;;;;;;;100.03;28.08;;;;;;;7.18;100.00;101324.94;1035295;28;20917;-80
2022/11/29 00:12:32;;;;;;;82.63;27.58;;;;;;;7.17;100.00;101328.59;1035052;28;20041;-80
2022/11/29 00:13:04;;;;;;;83.15;31.58;;;;;;;7.18;100.00;101330.22;1028221;28;20863;-80
2022/11/29 00:13:35;;;;;;;82.22;26.58;;;;;;;7.16;100.00;101333.06;1026224;28;20326;-80
2022/11/29 00:14:10;;;;;;;93.32;26.88;;;;;;;7.14;100.00;101332.44;1025976;28;20385;-80
2022/11/29 00:14:42;;;;;;;84.85;27.40;;;;;;;7.17;100.00;101326.75;1025489;28;20318;-80
2022/11/29 00:15:14;;;;;;;84.80;26.30;;;;;;;7.16;100.00;101329.59;1028467;28;20367;-80
2022/11/29 00:15:46;;;;;;;91.18;29.98;;;;;;;7.14;100.00;101327.13;1031683;28;20316;-81
2022/11/29 00:16:17;;;;;;;106.15;29.95;;;;;;;7.16;100.00;101325.13;1035628;28;20785;-81
2022/11/29 00:16:51;;;;;;;92.68;29.00;;;;;;;7.16;100.00;101324.28;1039264;28;20308;-80
2022/11/29 00:17:23;;;;;;;91.45;27.33;;;;;;;7.16;100.00;101329.59;1038333;28;20393;-81
2022/11/29 00:17:54;;;;;;;91.45;28.08;;;;;;;7.15;100.00;101322.66;1034818;28;20301;-81
2022/11/29 00:18:26;;;;;;;108.50;29.25;;;;;;;7.15;100.00;101327.94;1035039;28;20285;-81
2022/11/29 00:18:57;;;;;;;98.70;28.77;;;;;;;7.13;100.00;101328.97;1030459;28;20380;-80
2022/11/29 00:19:30;;;;;;;96.65;28.83;;;;;;;7.15;100.00;101325.31;1035172;28;20868;-80
2022/11/29 00:20:02;;;;;;;110.80;28.27;;;;;;;7.15;100.00;101322.66;1035158;28;20312;-80
2022/11/29 00:20:34;;;;;;;127.82;29.77;;;;;;;7.13;100.00;101330.78;1035266;28;20308;-80
2022/11/29 00:21:07;;;;;;;107.03;28.00;;;;;;;7.13;100.00;101328.97;1026555;28;20369;-80
2022/11/29 00:21:38;;;;;;;101.28;30.63;;;;;;;7.15;100.00;101323.47;1023561;28;20384;-80
2022/11/29 00:22:10;;;;;;;94.72;30.27;;;;;;;7.18;100.00;101331.06;1026516;28;20804;-80
2022/11/29 00:22:41;;;;;;;97.13;28.52;;;;;;;7.20;100.00;101336.16;1026908;28;20337;-80
2022/11/29 00:23:13;;;;;;;118.45;29.05;;;;;;;7.16;100.00;101325.13;1031213;28;20305;-80
2022/11/29 00:23:44;;;;;;;132.63;29.13;;;;;;;7.16;100.00;101329.59;1030708;28;20388;-80
2022/11/29 00:24:16;;;;;;;101.97;29.10;;;;;;;7.20;100.00;101326.41;1027413;28;20729;-80
2022/11/29 00:24:47;;;;;;;146.00;29.60;;;;;;;7.18;100.00;101327.59;1033106;28;20355;-80
2022/11/29 00:25:19;;;;;;;153.63;29.15;;;;;;;7.17;100.00;101331.25;1033840;28;20415;-80
2022/11/29 00:25:51;;;;;;;114.00;29.77;;;;;;;7.19;100.00;101334.53;1030634;28;20297;-80
2022/11/29 00:26:22;;;;;;;155.80;29.98;;;;;;;7.16;100.00;101332.25;1035024;28;20770;-80
2022/11/29 00:26:54;;;;;;;143.25;30.60;;;;;;;7.16;100.00;101329.59;1030948;28;20308;-80
2022/11/29 00:27:25;;;;;;;131.73;30.33;;;;;;;7.13;100.00;101336.91;1031003;28;20851;-80
2022/11/29 00:27:57;;;;;;;88.70;30.05;;;;;;;7.17;100.00;101331.25;1031026;28;20289;-80
2022/11/29 00:28:28;;;;;;;111.18;29.13;;;;;;;7.19;100.00;101330.06;1035569;28;20349;-80
2022/11/29 00:29:00;;;;;;;93.22;28.40;;;;;;;7.21;100.00;101332.50;1038826;28;20383;-81
2022/11/29 00:29:31;;;;;;;108.93;30.80;;;;;;;7.24;100.00;101332.16;1030035;28;20832;-80
2022/11/29 00:30:04;;;;;;;125.22;29.52;;;;;;;7.21;100.00;101327.22;1030585;28;20380;-80
2022/11/29 00:30:35;;;;;;;97.85;28.95;;;;;;;7.21;100.00;101330.69;1022952;28;20331;-80
2022/11/29 00:31:16;;;;;;;121.95;27.90;;;;;;;7.19;100.00;101329.22;1027597;28;20942;-80
2022/11/29 00:31:48;;;;;;;143.68;29.30;;;;;;;7.17;100.00;101333.88;1036555;28;20296;-80
2022/11/29 00:32:19;;;;;;;178.93;29.23;;;;;;;7.17;100.00;101336.53;1037954;28;20388;-81
2022/11/29 00:32:51;;;;;;;99.78;28.27;;;;;;;7.18;100.00;101335.53;1042883;28;20302;-81
2022/11/29 00:33:22;;;;;;;86.10;26.13;;;;;;;7.18;100.00;101332.88;1042778;28;20377;-81
2022/11/29 00:33:55;;;;;;;99.13;29.52;;;;;;;7.17;100.00;101334.72;1039078;28;20666;-81
2022/11/29 00:34:27;;;;;;;95.22;28.63;;;;;;;7.18;100.00;101332.88;1024629;28;20488;-81
2022/11/29 00:34:58;;;;;;;96.25;31.35;;;;;;;7.19;100.00;101331.88;1022430;28;20339;-80
2022/11/29 00:35:34;;;;;;;115.00;28.95;;;;;;;7.18;100.00;101331.06;1024882;28;20480;-80
2022/11/29 00:36:06;;;;;;;116.93;29.65;;;;;;;7.18;100.00;101341.66;1031352;28;20719;-80
2022/11/29 00:36:38;;;;;;;112.13;29.00;;;;;;;7.18;100.00;101344.31;1035654;28;20309;-80
2022/11/29 00:37:10;;;;;;;135.57;27.88;;;;;;;7.16;100.00;101340.19;1034760;28;20308;-80
2022/11/29 00:37:41;;;;;;;170.57;30.17;;;;;;;7.16;100.00;101348.97;1034623;28;20346;-80
2022/11/29 00:38:13;;;;;;;91.20;28.85;;;;;;;7.18;100.00;101343.47;1034930;28;20375;-80
2022/11/29 00:38:45;;;;;;;112.57;30.50;;;;;;;7.17;100.00;101341.84;1035190;28;20842;-80
2022/11/29 00:39:16;;;;;;;99.55;29.00;;;;;;;7.20;100.00;101342.28;1030058;28;20356;-81
2022/11/29 00:39:48;;;;;;;146.05;28.27;;;;;;;7.19;100.00;101347.78;1030627;28;20380;-81
2022/11/29 00:40:19;;;;;;;170.15;29.08;;;;;;;7.19;100.00;101345.13;1032923;28;20446;-81
2022/11/29 00:40:51;;;;;;;122.53;27.73;;;;;;;7.19;100.00;101340.66;1035241;28;20346;-80
2022/11/29 00:41:23;;;;;;;107.43;29.05;;;;;;;7.19;100.00;101339.81;1032653;28;20420;-80
2022/11/29 00:41:54;;;;;;;101.00;26.95;;;;;;;7.20;100.00;101347.59;1030510;28;20301;-80
2022/11/29 00:42:26;;;;;;;102.15;26.60;;;;;;;7.21;100.00;101338.63;1027414;28;20380;-80
2022/11/29 00:42:57;;;;;;;90.97;27.50;;;;;;;7.22;100.00;101340.28;1025524;28;20790;-80
2022/11/29 00:43:29;;;;;;;120.82;28.75;;;;;;;7.23;100.00;101346.41;1031111;28;20489;-80
2022/11/29 00:44:00;;;;;;;101.68;28.42;;;;;;;7.23;100.00;101346.41;1027380;28;20372;-80
2022/11/29 00:44:32;;;;;;;111.80;28.35;;;;;;;7.22;100.00;101347.41;1028759;28;20297;-80
2022/11/29 00:45:04;;;;;;;82.60;27.67;;;;;;;7.22;100.00;101344.75;1023384;28;20365;-80
2022/11/29 00:45:35;;;;;;;93.80;27.13;;;;;;;7.23;100.00;101347.22;1028517;28;20392;-80
2022/11/29 00:46:08;;;;;;;82.15;26.88;;;;;;;7.25;100.00;101345.22;1036295;28;20534;-80
2022/11/29 00:46:39;;;;;;;86.78;29.02;;;;;;;7.29;100.00;101351.78;1036153;28;20376;-80
2022/11/29 00:47:11;;;;;;;103.80;27.98;;;;;;;7.27;100.00;101350.31;1039486;28;20292;-81
2022/11/29 00:47:42;;;;;;;106.88;29.63;;;;;;;7.25;100.00;101349.69;1035875;28;20628;-81
2022/11/29 00:48:14;;;;;;;94.43;29.60;;;;;;;7.25;100.00;101350.50;1027404;28;20385;-81
2022/11/29 00:48:45;;;;;;;97.68;26.35;;;;;;;7.25;100.00;101355.00;1027980;28;20297;-81
2022/11/29 00:49:17;;;;;;;99.38;29.17;;;;;;;7.26;100.00;101348.69;1028351;28;20799;-80
2022/11/29 00:49:48;;;;;;;90.85;28.60;;;;;;;7.27;100.00;101350.31;1031571;28;20388;-81
2022/11/29 00:50:20;;;;;;;80.07;29.17;;;;;;;7.29;100.00;101357.09;1035041;28;20299;-80
2022/11/29 00:50:52;;;;;;;90.53;28.23;;;;;;;7.29;100.00;101348.31;1032235;28;20783;-81
2022/11/29 00:51:23;;;;;;;86.75;29.02;;;;;;;7.31;100.00;101351.59;1035713;28;20284;-81
2022/11/29 00:51:55;;;;;;;85.57;26.83;;;;;;;7.32;100.00;101350.59;1039581;28;20442;-81
2022/11/29 00:52:26;;;;;;;85.95;28.88;;;;;;;7.32;100.00;101353.25;1040581;28;20315;-80
2022/11/29 00:52:58;;;;;;;87.53;28.80;;;;;;;7.28;100.00;101350.16;1039224;28;20310;-81
2022/11/29 00:53:29;;;;;;;93.07;28.08;;;;;;;7.27;100.00;101347.69;1039622;28;20393;-80
2022/11/29 00:54:01;;;;;;;85.75;24.67;;;;;;;7.27;100.00;101358.28;1041867;28;20382;-80
2022/11/29 00:54:32;;;;;;;81.70;27.05;;;;;;;7.25;100.00;101355.00;1031411;28;20343;-80
2022/11/29 00:55:04;;;;;;;91.40;29.58;;;;;;;7.27;100.00;101352.97;1033571;28;20304;-80
2022/11/29 00:55:36;;;;;;;77.70;26.88;;;;;;;7.27;100.00;101358.28;1035498;28;20848;-81
2022/11/29 00:56:08;;;;;;;82.15;25.65;;;;;;;7.28;100.00;101349.31;1032234;28;20863;-81
2022/11/29 00:56:39;;;;;;;83.95;25.02;;;;;;;7.29;100.00;101350.97;1035537;28;20419;-81
2022/11/29 00:57:11;;;;;;;90.90;25.63;;;;;;;7.25;100.00;101349.69;1032558;28;20376;-80
2022/11/29 00:57:42;;;;;;;86.38;25.45;;;;;;;7.23;100.00;101351.69;1039520;28;20304;-80
2022/11/29 00:58:14;;;;;;;78.40;26.60;;;;;;;7.24;100.00;101353.34;1035279;28;20311;-80
2022/11/29 00:58:47;;;;;;;77.15;24.42;;;;;;;7.21;100.00;101349.22;1035954;28;20371;-80
2022/11/29 00:59:18;;;;;;;86.25;25.98;;;;;;;7.22;100.00;101344.75;1035719;28;20379;-80
2022/11/29 00:59:50;;;;;;;84.10;23.42;;;;;;;7.22;100.00;101347.41;1036022;28;20379;-80
2022/11/29 01:00:22;;;;;;;83.65;24.23;;;;;;;7.19;100.00;101350.44;1038243;28;20311;-81
2022/11/29 01:00:53;;;;;;;92.57;27.45;;;;;;;7.19;100.00;101353.06;1039463;28;20896;-80
2022/11/29 01:01:25;;;;;;;74.18;25.30;;;;;;;7.20;100.00;101352.88;1034915;28;20422;-80
2022/11/29 01:01:56;;;;;;;70.63;25.95;;;;;;;7.22;100.00;101345.56;1029857;28;20304;-81
2022/11/29 01:02:28;;;;;;;78.03;24.17;;;;;;;7.21;100.00;101348.41;1030792;28;20381;-80
2022/11/29 01:03:00;;;;;;;82.05;24.55;;;;;;;7.21;100.00;101348.41;1032384;28;20301;-80
2022/11/29 01:03:32;;;;;;;87.22;25.75;;;;;;;7.17;100.00;101347.13;1029797;28;20304;-80
2022/11/29 01:04:04;;;;;;;89.60;24.40;;;;;;;7.17;100.00;101341.84;1035474;28;20755;-81
2022/11/29 01:04:35;;;;;;;84.75;26.20;;;;;;;7.18;100.00;101344.31;1035189;28;20390;-81
2022/11/29 01:05:07;;;;;;;91.15;24.88;;;;;;;7.17;100.00;101341.84;1036785;28;20850;-80
2022/11/29 01:05:39;;;;;;;73.55;22.90;;;;;;;7.17;100.00;101347.13;1042364;28;20299;-80
2022/11/29 01:06:12;;;;;;;71.47;24.02;;;;;;;7.15;100.00;101338.53;1031122;28;20301;-80
2022/11/29 01:06:44;;;;;;;85.50;24.27;;;;;;;7.16;100.00;101341.00;1023759;28;20386;-80
2022/11/29 01:07:16;;;;;;;80.68;23.85;;;;;;;7.15;100.00;101336.72;1027725;28;20854;-81
2022/11/29 01:07:47;;;;;;;94.28;24.98;;;;;;;7.15;100.00;101343.84;1031225;28;20343;-81
2022/11/29 01:08:19;;;;;;;80.97;23.90;;;;;;;7.15;100.00;101343.84;1031740;28;20671;-81
2022/11/29 01:08:51;;;;;;;76.10;24.58;;;;;;;7.17;100.00;101336.53;1028903;28;20286;-80
2022/11/29 01:09:22;;;;;;;77.63;22.88;;;;;;;7.19;100.00;101337.19;1032347;28;20383;-81
2022/11/29 01:09:54;;;;;;;75.72;22.67;;;;;;;7.19;100.00;101334.53;1035746;28;20343;-81
2022/11/29 01:10:25;;;;;;;77.60;25.42;;;;;;;7.16;100.00;101334.91;1035618;28;20319;-81
2022/11/29 01:11:10;;;;;;;79.97;23.63;;;;;;;7.15;100.00;101338.53;1035261;28;20313;-80
2022/11/29 01:11:41;;;;;;;72.25;21.85;;;;;;;7.16;100.00;101345.50;1033789;28;20296;-80
2022/11/29 01:12:13;;;;;;;69.63;22.98;;;;;;;7.16;100.00;101341.00;1037615;28;20504;-81
2022/11/29 01:12:44;;;;;;;79.85;24.42;;;;;;;7.16;100.00;101346.31;1037516;28;20361;-81
2022/11/29 01:13:16;;;;;;;70.82;21.60;;;;;;;7.17;100.00;101341.84;1040165;28;20375;-81
2022/11/29 01:13:49;;;;;;;63.90;22.25;;;;;;;7.15;100.00;101343.84;1043726;28;20672;-81
2022/11/29 01:14:21;;;;;;;74.43;24.50;;;;;;;7.13;100.00;101341.38;1036088;28;20458;-80
2022/11/29 01:14:53;;;;;;;59.80;21.25;;;;;;;7.18;100.00;101343.47;1031248;28;20308;-80
2022/11/29 01:15:24;;;;;;;58.25;20.50;;;;;;;7.16;100.00;101345.50;1032380;28;20358;-80
2022/11/29 01:15:57;;;;;;;63.03;21.15;;;;;;;7.11;100.00;101346.81;1035696;28;20436;-80
2022/11/29 01:16:29;;;;;;;59.10;20.77;;;;;;;7.11;100.00;101346.00;1032027;28;20309;-80
2022/11/29 01:17:01;;;;;;;71.22;23.33;;;;;;;7.11;100.00;101352.13;1031098;28;20339;-80
2022/11/29 01:17:37;;;;;;;66.40;23.85;;;;;;;7.11;100.00;101348.66;1028741;28;20748;-80
2022/11/29 01:18:09;;;;;;;54.95;20.25;;;;;;;7.12;100.00;101351.16;1032225;28;20293;-80
2022/11/29 01:18:41;;;;;;;74.85;23.15;;;;;;;7.13;100.00;101350.16;1036783;28;20682;-81
2022/11/29 01:19:13;;;;;;;69.97;19.92;;;;;;;7.10;100.00;101353.13;1034204;28;20378;-81
2022/11/29 01:19:44;;;;;;;66.50;22.42;;;;;;;7.09;100.00;101348.84;1027517;28;20796;-80
2022/11/29 01:20:21;;;;;;;71.90;22.45;;;;;;;7.06;100.00;101349.19;1031252;28;20305;-80
2022/11/29 01:20:57;;;;;;;81.10;23.95;;;;;;;7.06;100.00;101351.84;1032678;28;20369;-81
2022/11/29 01:21:28;;;;;;;72.45;23.42;;;;;;;7.07;100.00;101353.50;1035150;28;20750;-81
2022/11/29 01:22:00;;;;;;;66.80;22.15;;;;;;;7.10;100.00;101353.13;1035048;28;20419;-81
2022/11/29 01:22:33;;;;;;;79.53;24.83;;;;;;;7.05;100.00;101354.69;1035517;28;20328;-81
2022/11/29 01:23:04;;;;;;;75.95;23.85;;;;;;;7.06;100.00;101356.31;1033569;28;20336;-81
2022/11/29 01:23:36;;;;;;;74.93;22.85;;;;;;;7.05;100.00;101358.16;1031844;28;20746;-81
2022/11/29 01:24:08;;;;;;;68.00;23.70;;;;;;;7.06;100.00;101351.03;1031983;28;20324;-81
2022/11/29 01:24:40;;;;;;;76.10;22.50;;;;;;;7.05;100.00;101355.50;1036320;28;20307;-80
2022/11/29 01:25:12;;;;;;;70.38;20.63;;;;;;;7.05;100.00;101360.81;1039280;28;20296;-80
2022/11/29 01:25:43;;;;;;;70.47;22.63;;;;;;;7.04;100.00;101355.69;1035432;28;20336;-80
2022/11/29 01:26:18;;;;;;;68.30;21.98;;;;;;;7.02;100.00;101355.88;1035931;28;20834;-80
2022/11/29 01:26:49;;;;;;;60.58;20.13;;;;;;;7.03;100.00;101357.50;1035450;28;20352;-80
2022/11/29 01:27:21;;;;;;;65.82;20.67;;;;;;;7.04;100.00;101361.81;1031881;28;20715;-80
2022/11/29 01:27:53;;;;;;;60.30;23.00;;;;;;;7.08;100.00;101359.63;1036601;28;20371;-80
2022/11/29 01:28:25;;;;;;;82.22;20.52;;;;;;;7.06;100.00;101362.44;1034880;28;20336;-80
2022/11/29 01:28:57;;;;;;;67.88;20.08;;;;;;;7.05;100.00;101365.28;1031719;28;20727;-81
2022/11/29 01:29:29;;;;;;;78.05;21.70;;;;;;;7.05;100.00;101363.44;1032190;28;20383;-81
2022/11/29 01:30:01;;;;;;;68.40;20.45;;;;;;;7.13;100.00;101357.28;1021280;28;20307;-81
2022/11/29 01:30:32;;;;;;;60.97;22.17;;;;;;;7.07;100.00;101364.09;1023256;28;20470;-81
2022/11/29 01:31:09;;;;;;;67.18;21.30;;;;;;;7.06;100.00;101359.78;1023427;28;20291;-80
2022/11/29 01:31:41;;;;;;;64.72;22.27;;;;;;;7.03;100.00;101362.81;1026780;28;20313;-81
2022/11/29 01:32:12;;;;;;;65.97;22.10;;;;;;;7.08;100.00;101355.13;1024994;28;20370;-80
2022/11/29 01:32:44;;;;;;;77.82;24.08;;;;;;;7.08;100.00;101360.44;1029773;28;20298;-80
2022/11/29 01:33:15;;;;;;;70.75;22.80;;;;;;;7.06;100.00;101362.44;1035844;28;20527;-80
2022/11/29 01:33:47;;;;;;;67.85;22.65;;;;;;;7.07;100.00;101361.44;1031364;28;20332;-80
2022/11/29 01:34:18;;;;;;;64.75;22.00;;;;;;;7.07;100.00;101361.44;1034152;28;20391;-80
2022/11/29 01:34:50;;;;;;;72.30;23.63;;;;;;;7.07;100.00;101363.28;1032228;28;20337;-81
2022/11/29 01:35:21;;;;;;;66.07;20.85;;;;;;;7.05;100.00;101359.97;1032226;28;20301;-80
2022/11/29 01:35:53;;;;;;;72.93;23.52;;;;;;;7.05;100.00;101360.81;1039415;28;20378;-80
2022/11/29 01:36:25;;;;;;;69.40;21.40;;;;;;;7.05;100.00;101359.97;1036092;28;20443;-80
2022/11/29 01:36:57;;;;;;;87.68;23.02;;;;;;;7.07;100.00;101364.09;1035726;28;20832;-80
2022/11/29 01:37:28;;;;;;;72.18;25.83;;;;;;;7.08;100.00;101359.63;1031320;28;20301;-80
2022/11/29 01:38:00;;;;;;;72.65;24.15;;;;;;;7.08;100.00;101360.44;1031821;28;20305;-80
2022/11/29 01:38:32;;;;;;;78.03;24.83;;;;;;;7.08;100.00;101365.75;1036003;28;20395;-81
2022/11/29 01:39:04;;;;;;;77.70;22.88;;;;;;;7.07;100.00;101364.09;1035669;28;20387;-80
2022/11/29 01:39:36;;;;;;;74.15;24.63;;;;;;;7.11;100.00;101361.91;1035496;28;20367;-80
2022/11/29 01:40:07;;;;;;;81.78;22.70;;;;;;;7.08;100.00;101363.09;1035869;28;20813;-80
2022/11/29 01:40:39;;;;;;;67.55;23.23;;;;;;;7.08;100.00;101364.91;1035501;28;20296;-80
2022/11/29 01:41:14;;;;;;;77.65;24.80;;;;;;;7.13;100.00;101368.69;1031613;28;20440;-80
2022/11/29 01:41:46;;;;;;;64.47;23.33;;;;;;;7.14;100.00;101369.50;1028480;28;20840;-80
2022/11/29 01:42:17;;;;;;;73.30;23.55;;;;;;;7.18;100.00;101372.63;1031295;28;20500;-80
2022/11/29 01:42:49;;;;;;;75.28;22.05;;;;;;;7.18;100.00;101375.28;1037107;28;20415;-80
2022/11/29 01:43:21;;;;;;;66.40;22.58;;;;;;;7.17;100.00;101368.31;1040083;28;20307;-80
2022/11/29 01:43:54;;;;;;;72.28;22.02;;;;;;;7.15;100.00;101370.34;1035130;28;20379;-81
2022/11/29 01:44:25;;;;;;;75.05;23.15;;;;;;;7.12;100.00;101369.69;1027199;28;20318;-80
2022/11/29 01:45:21;;;;;;;66.47;23.13;;;;;;;7.14;100.00;101372.16;1028044;28;20676;-80
2022/11/29 01:45:53;;;;;;;63.55;20.92;;;;;;;7.17;100.00;101377.09;1035379;28;20328;-80
2022/11/29 01:46:27;;;;;;;63.67;19.90;;;;;;;7.19;100.00;101376.91;1035011;28;20376;-80
2022/11/29 01:46:59;;;;;;;65.80;23.17;;;;;;;7.20;100.00;101378.56;1031167;28;20391;-80
2022/11/29 01:47:31;;;;;;;72.68;24.27;;;;;;;7.21;100.00;101380.22;1032395;28;20416;-80
2022/11/29 01:48:03;;;;;;;77.55;22.65;;;;;;;7.19;100.00;101388.34;1035250;28;20379;-80
2022/11/29 01:48:34;;;;;;;74.07;23.75;;;;;;;7.20;100.00;101379.38;1031928;28;20447;-80
2022/11/29 01:49:15;;;;;;;72.30;25.15;;;;;;;7.20;100.00;101389.16;1031147;28;20387;-80
2022/11/29 01:49:47;;;;;;;63.58;21.00;;;;;;;7.19;100.00;101387.50;1032783;28;20305;-80
2022/11/29 01:50:19;;;;;;;60.85;20.95;;;;;;;7.19;100.00;101385.69;1033298;28;20132;-81
2022/11/29 01:50:53;;;;;;;66.28;22.15;;;;;;;7.19;100.00;101380.38;1029133;28;20752;-81
2022/11/29 01:51:26;;;;;;;62.53;22.30;;;;;;;7.22;100.00;101381.84;1030564;28;20347;-81
2022/11/29 01:51:59;;;;;;;63.28;22.50;;;;;;;7.19;100.00;101383.03;1028062;28;20372;-81
2022/11/29 01:52:31;;;;;;;65.72;21.70;;;;;;;7.20;100.00;101381.22;1032612;28;20289;-81
2022/11/29 01:53:03;;;;;;;60.83;22.02;;;;;;;7.20;100.00;101383.84;1030794;28;20380;-80
2022/11/29 01:53:35;;;;;;;65.90;21.40;;;;;;;7.20;100.00;101389.16;1024799;28;20759;-80
2022/11/29 01:54:08;;;;;;;73.07;19.85;;;;;;;7.18;100.00;101389.34;1031459;28;20424;-80
2022/11/29 01:54:45;;;;;;;61.35;20.35;;;;;;;7.20;100.00;101389.16;1027876;28;20385;-80
2022/11/29 01:55:17;;;;;;;68.55;22.23;;;;;;;7.17;100.00;101381.56;1031667;28;20306;-80
2022/11/29 01:55:52;;;;;;;63.40;21.05;;;;;;;7.13;100.00;101389.06;1035158;28;21026;-80
2022/11/29 01:56:24;;;;;;;56.50;20.90;;;;;;;7.15;100.00;101386.22;1034666;28;20882;-80
2022/11/29 01:56:57;;;;;;;64.90;20.00;;;;;;;7.16;100.00;101382.59;1031327;28;20380;-80
2022/11/29 01:57:29;;;;;;;62.22;20.58;;;;;;;7.18;100.00;101391.16;1036296;28;20292;-80
2022/11/29 01:58:02;;;;;;;70.78;24.48;;;;;;;7.17;100.00;101394.81;1031742;28;20301;-80
2022/11/29 01:58:34;;;;;;;64.70;20.50;;;;;;;7.17;100.00;101390.34;1034520;28;20288;-80
2022/11/29 01:59:09;;;;;;;63.25;22.50;;;;;;;7.18;100.00;101392.00;1029253;28;20804;-80
2022/11/29 01:59:45;;;;;;;69.10;22.90;;;;;;;7.17;100.00;101385.03;1031848;28;20439;-80
2022/11/29 02:00:18;;;;;;;60.28;21.50;;;;;;;7.19;100.00;101398.94;1031021;28;20333;-80
2022/11/29 02:00:50;;;;;;;57.25;21.63;;;;;;;7.20;100.00;101394.47;1032964;28;20518;-80
2022/11/29 02:01:22;;;;;;;67.03;20.45;;;;;;;7.13;100.00;101395.19;1032759;28;20312;-80
2022/11/29 02:02:04;;;;;;;63.88;20.27;;;;;;;7.13;100.00;101397.84;1032038;28;20328;-80
2022/11/29 02:02:51;;;;;;;73.90;23.52;;;;;;;7.11;100.00;101394.50;1035514;28;20296;-80
2022/11/29 02:03:22;;;;;;;66.47;20.73;;;;;;;7.10;100.00;101400.81;1031121;28;20384;-80
2022/11/29 02:03:54;;;;;;;70.03;23.50;;;;;;;7.12;100.00;101397.97;1027105;28;20306;-80
2022/11/29 02:04:26;;;;;;;72.57;24.15;;;;;;;7.21;100.00;101393.44;1027350;28;20826;-80
2022/11/29 02:04:58;;;;;;;79.60;25.08;;;;;;;7.17;100.00;101395.66;1027645;28;20779;-81
2022/11/29 02:05:31;;;;;;;67.50;23.55;;;;;;;7.18;100.00;101396.47;1032543;28;20289;-81
2022/11/29 02:06:04;;;;;;;80.70;23.40;;;;;;;7.12;100.00;101403.28;1032243;28;20851;-80
2022/11/29 02:06:36;;;;;;;74.15;25.13;;;;;;;7.11;100.00;101394.50;1031904;28;20304;-80
2022/11/29 02:07:08;;;;;;;70.35;24.40;;;;;;;7.10;100.00;101398.16;1030675;28;20737;-80
2022/11/29 02:07:41;;;;;;;75.28;23.05;;;;;;;7.11;100.00;101389.22;1032038;28;20375;-80
2022/11/29 02:08:15;;;;;;;69.90;24.02;;;;;;;7.12;100.00;101393.53;1025978;28;20359;-80
2022/11/29 02:08:47;;;;;;;69.28;23.20;;;;;;;7.09;100.00;101399.16;1032047;28;20307;-80
2022/11/29 02:09:20;;;;;;;78.20;25.15;;;;;;;7.08;100.00;101394.88;1030796;28;20301;-80
2022/11/29 02:09:52;;;;;;;74.68;23.13;;;;;;;7.12;100.00;101397.97;1027650;28;20290;-80
2022/11/29 02:10:48;;;;;;;72.95;22.42;;;;;;;7.12;100.00;101403.28;1027546;28;20388;-80
2022/11/29 02:11:45;;;;;;;67.90;22.92;;;;;;;7.10;100.00;101400.81;1031618;28;20293;-80
2022/11/29 02:12:25;;;;;;;60.15;19.52;;;;;;;7.06;100.00;101394.22;1035760;28;20300;-80
2022/11/29 02:13:03;;;;;;;59.70;19.38;;;;;;;7.04;100.00;101392.78;1035259;28;20488;-80
2022/11/29 02:14:09;;;;;;;63.70;19.15;;;;;;;7.04;100.00;101395.41;1025333;28;20070;-81
2022/11/29 02:15:05;;;;;;;59.90;18.90;;;;;;;7.02;100.00;101398.25;1032520;28;20352;-80
2022/11/29 02:15:45;;;;;;;52.35;17.85;;;;;;;7.03;100.00;101394.59;1038976;28;20304;-80
2022/11/29 02:16:32;;;;;;;68.05;20.08;;;;;;;7.00;100.00;101391.50;1027491;28;20306;-80
2022/11/29 02:17:12;;;;;;;62.85;19.42;;;;;;;6.99;100.00;101393.31;1027531;28;20124;-80
2022/11/29 02:18:13;;;;;;;75.75;20.02;;;;;;;6.98;100.00;101391.66;1036039;28;20347;-81
2022/11/29 02:18:54;;;;;;;60.05;19.98;;;;;;;6.99;100.00;101389.84;1040951;28;20048;-81
2022/11/29 02:19:26;;;;;;;;;;;;;;;6.99;100.00;101395.97;1035542;28;20180;-81
2022/11/29 02:20:05;;;;;;;;;;;;;;;7.00;100.00;101402.91;1035895;28;19953;-81
2022/11/29 02:20:41;;;;;;;57.83;17.08;;;;;;;7.01;100.00;101395.78;1033488;28;19929;-81
2022/11/29 02:21:40;;;;;;;64.05;19.55;;;;;;;6.98;100.00;101394.31;1031439;28;20428;-81
2022/11/29 02:22:18;;;;;;;53.53;19.65;;;;;;;7.00;100.00;101396.78;1027111;28;20309;-81
2022/11/29 02:22:56;;;;;;;66.25;20.27;;;;;;;7.04;100.00;101401.53;1031838;28;20541;-81
2022/11/29 02:23:38;;;;;;;79.43;23.02;;;;;;;7.08;100.00;101392.22;1035217;28;20304;-81
2022/11/29 02:24:28;;;;;;;65.65;20.27;;;;;;;7.12;100.00;101397.97;1034880;28;20383;-80
2022/11/29 02:25:23;;;;;;;54.58;19.83;;;;;;;7.16;100.00;101395.81;1039668;28;20328;-81
2022/11/29 02:26:22;;;;;;;77.75;22.98;;;;;;;7.10;100.00;101394.69;1035325;28;20336;-81
2022/11/29 02:27:03;;;;;;;64.72;23.83;;;;;;;7.06;100.00;101396.88;1036691;28;20643;-81
2022/11/29 02:27:50;;;;;;;70.38;21.30;;;;;;;7.15;100.00;101388.88;1039327;28;20295;-80
2022/11/29 02:28:50;;;;;;;68.55;19.58;;;;;;;7.11;100.00;101397.16;1039113;28;20084;-81
2022/11/29 02:29:52;;;;;;;61.90;18.85;;;;;;;7.11;100.00;101389.22;1033003;28;20683;-80
2022/11/29 02:30:24;;;;;;;;;;;;;;;7.09;100.00;101391.22;1038007;28;20226;-81
2022/11/29 02:30:57;;;;;;;;;;;;;;;7.10;100.00;101384.91;1034082;28;20107;-81
2022/11/29 02:31:57;;;;;;;57.95;17.67;;;;;;;7.15;100.00;101391.53;1035418;28;19925;-81
2022/11/29 02:33:01;;;;;;;52.97;19.33;;;;;;;7.13;100.00;101400.47;1026586;28;20345;-81
2022/11/29 02:33:46;;;;;;;63.67;19.90;;;;;;;7.05;100.00;101391.75;1034060;28;20320;-80
2022/11/29 02:34:32;;;;;;;60.92;20.48;;;;;;;7.03;100.00;101394.59;1035380;28;20301;-81
2022/11/29 02:35:03;;;;;;;57.55;20.90;;;;;;;7.00;100.00;101394.13;1041790;28;20296;-81
2022/11/29 02:35:47;;;;;;;66.07;20.55;;;;;;;6.97;100.00;101395.31;1043618;28;20295;-81
2022/11/29 02:36:31;;;;;;;65.75;22.50;;;;;;;6.98;100.00;101396.97;1040315;28;20335;-81